sensor_id;sensor_type;location;lat;lon;timestamp;temperature;humidity
84018;DHT22;74097;51.992;5.890;2023-11-21T00:01:43;17.30;63.60
84018;DHT22;74097;51.992;5.890;2023-11-21T00:04:09;17.30;63.50
84018;DHT22;74097;51.992;5.890;2023-11-21T00:06:34;17.30;63.50
84018;DHT22;74097;51.992;5.890;2023-11-21T00:09:00;17.30;63.60
84018;DHT22;74097;51.992;5.890;2023-11-21T00:11:26;17.30;63.60
84018;DHT22;74097;51.992;5.890;2023-11-21T00:13:51;17.30;63.60
84018;DHT22;74097;51.992;5.890;2023-11-21T00:16:18;17.30;63.60
84018;DHT22;74097;51.992;5.890;2023-11-21T00:18:44;17.30;63.60
84018;DHT22;74097;51.992;5.890;2023-11-21T00:21:10;17.30;63.50
84018;DHT22;74097;51.992;5.890;2023-11-21T00:23:36;17.30;63.60
84018;DHT22;74097;51.992;5.890;2023-11-21T00:26:01;17.30;63.60
84018;DHT22;74097;51.992;5.890;2023-11-21T00:28:27;17.20;63.50
84018;DHT22;74097;51.992;5.890;2023-11-21T00:30:53;17.30;63.60
84018;DHT22;74097;51.992;5.890;2023-11-21T00:33:20;17.30;63.60
84018;DHT22;74097;51.992;5.890;2023-11-21T00:35:46;17.30;63.60
84018;DHT22;74097;51.992;5.890;2023-11-21T00:38:12;17.20;63.60
84018;DHT22;74097;51.992;5.890;2023-11-21T00:40:38;17.30;63.60
84018;DHT22;74097;51.992;5.890;2023-11-21T00:43:04;17.30;63.90
84018;DHT22;74097;51.992;5.890;2023-11-21T00:45:29;17.20;64.10
84018;DHT22;74097;51.992;5.890;2023-11-21T00:47:55;17.20;64.20
84018;DHT22;74097;51.992;5.890;2023-11-21T00:50:23;17.20;64.20
84018;DHT22;74097;51.992;5.890;2023-11-21T00:52:48;17.20;64.30
84018;DHT22;74097;51.992;5.890;2023-11-21T00:55:14;17.20;64.40
84018;DHT22;74097;51.992;5.890;2023-11-21T00:57:40;17.30;64.40
84018;DHT22;74097;51.992;5.890;2023-11-21T01:00:07;17.20;64.50
84018;DHT22;74097;51.992;5.890;2023-11-21T01:02:34;17.30;64.50
84018;DHT22;74097;51.992;5.890;2023-11-21T01:05:00;17.20;64.50
84018;DHT22;74097;51.992;5.890;2023-11-21T01:07:27;17.20;64.50
84018;DHT22;74097;51.992;5.890;2023-11-21T01:09:52;17.30;64.50
84018;DHT22;74097;51.992;5.890;2023-11-21T01:12:18;17.30;64.60
84018;DHT22;74097;51.992;5.890;2023-11-21T01:14:44;17.20;64.50
84018;DHT22;74097;51.992;5.890;2023-11-21T01:17:11;17.30;64.50
84018;DHT22;74097;51.992;5.890;2023-11-21T01:19:37;17.30;64.50
84018;DHT22;74097;51.992;5.890;2023-11-21T01:22:03;17.30;64.50
84018;DHT22;74097;51.992;5.890;2023-11-21T01:24:30;17.30;64.60
84018;DHT22;74097;51.992;5.890;2023-11-21T01:26:56;17.30;64.50
84018;DHT22;74097;51.992;5.890;2023-11-21T01:29:21;17.30;64.50
84018;DHT22;74097;51.992;5.890;2023-11-21T01:31:47;17.30;64.50
84018;DHT22;74097;51.992;5.890;2023-11-21T01:34:13;17.30;64.60
84018;DHT22;74097;51.992;5.890;2023-11-21T01:36:38;17.30;64.50
84018;DHT22;74097;51.992;5.890;2023-11-21T01:39:04;17.30;64.50
84018;DHT22;74097;51.992;5.890;2023-11-21T01:41:31;17.30;64.60
84018;DHT22;74097;51.992;5.890;2023-11-21T01:43:57;17.30;64.60
84018;DHT22;74097;51.992;5.890;2023-11-21T01:46:23;17.30;64.60
84018;DHT22;74097;51.992;5.890;2023-11-21T01:48:49;17.30;64.60
84018;DHT22;74097;51.992;5.890;2023-11-21T01:51:15;17.30;64.50
84018;DHT22;74097;51.992;5.890;2023-11-21T01:53:42;17.30;64.60
84018;DHT22;74097;51.992;5.890;2023-11-21T01:56:09;17.30;64.60
84018;DHT22;74097;51.992;5.890;2023-11-21T01:58:37;17.30;64.60
84018;DHT22;74097;51.992;5.890;2023-11-21T02:01:03;17.30;64.60
84018;DHT22;74097;51.992;5.890;2023-11-21T02:03:28;17.30;64.60
84018;DHT22;74097;51.992;5.890;2023-11-21T02:05:54;17.30;64.60
84018;DHT22;74097;51.992;5.890;2023-11-21T02:08:20;17.30;64.50
84018;DHT22;74097;51.992;5.890;2023-11-21T02:10:45;17.30;64.50
84018;DHT22;74097;51.992;5.890;2023-11-21T02:13:12;17.30;64.50
84018;DHT22;74097;51.992;5.890;2023-11-21T02:15:39;17.30;64.50
84018;DHT22;74097;51.992;5.890;2023-11-21T02:18:05;17.30;64.50
84018;DHT22;74097;51.992;5.890;2023-11-21T02:20:31;17.30;64.50
84018;DHT22;74097;51.992;5.890;2023-11-21T02:22:58;17.30;64.50
84018;DHT22;74097;51.992;5.890;2023-11-21T02:25:24;17.30;64.50
84018;DHT22;74097;51.992;5.890;2023-11-21T02:27:50;17.30;64.50
84018;DHT22;74097;51.992;5.890;2023-11-21T02:30:16;17.30;64.50
84018;DHT22;74097;51.992;5.890;2023-11-21T02:32:42;17.30;64.50
84018;DHT22;74097;51.992;5.890;2023-11-21T02:35:08;17.30;64.50
84018;DHT22;74097;51.992;5.890;2023-11-21T02:37:33;17.30;64.50
84018;DHT22;74097;51.992;5.890;2023-11-21T02:40:00;17.30;64.50
84018;DHT22;74097;51.992;5.890;2023-11-21T02:42:26;17.30;64.50
84018;DHT22;74097;51.992;5.890;2023-11-21T02:44:53;17.30;64.50
84018;DHT22;74097;51.992;5.890;2023-11-21T02:47:19;17.30;64.40
84018;DHT22;74097;51.992;5.890;2023-11-21T02:49:44;17.30;64.50
84018;DHT22;74097;51.992;5.890;2023-11-21T02:52:10;17.30;64.50
84018;DHT22;74097;51.992;5.890;2023-11-21T02:54:36;17.30;64.40
84018;DHT22;74097;51.992;5.890;2023-11-21T02:57:03;17.30;64.40
84018;DHT22;74097;51.992;5.890;2023-11-21T02:59:29;17.30;64.40
84018;DHT22;74097;51.992;5.890;2023-11-21T03:01:55;17.30;64.40
84018;DHT22;74097;51.992;5.890;2023-11-21T03:04:20;17.30;64.40
84018;DHT22;74097;51.992;5.890;2023-11-21T03:06:46;17.30;64.40
84018;DHT22;74097;51.992;5.890;2023-11-21T03:09:12;17.30;64.40
84018;DHT22;74097;51.992;5.890;2023-11-21T03:11:38;17.30;64.40
84018;DHT22;74097;51.992;5.890;2023-11-21T03:14:05;17.30;64.40
84018;DHT22;74097;51.992;5.890;2023-11-21T03:16:31;17.30;64.40
84018;DHT22;74097;51.992;5.890;2023-11-21T03:18:57;17.30;64.30
84018;DHT22;74097;51.992;5.890;2023-11-21T03:21:23;17.30;64.30
84018;DHT22;74097;51.992;5.890;2023-11-21T03:23:49;17.30;64.30
84018;DHT22;74097;51.992;5.890;2023-11-21T03:26:15;17.30;64.30
84018;DHT22;74097;51.992;5.890;2023-11-21T03:28:40;17.30;64.30
84018;DHT22;74097;51.992;5.890;2023-11-21T03:31:07;17.30;64.30
84018;DHT22;74097;51.992;5.890;2023-11-21T03:33:33;17.30;64.30
84018;DHT22;74097;51.992;5.890;2023-11-21T03:35:59;17.30;64.30
84018;DHT22;74097;51.992;5.890;2023-11-21T03:38:24;17.20;64.30
84018;DHT22;74097;51.992;5.890;2023-11-21T03:40:50;17.30;64.30
84018;DHT22;74097;51.992;5.890;2023-11-21T03:43:16;17.20;64.30
84018;DHT22;74097;51.992;5.890;2023-11-21T03:45:42;17.30;64.30
84018;DHT22;74097;51.992;5.890;2023-11-21T03:48:09;17.30;64.30
84018;DHT22;74097;51.992;5.890;2023-11-21T03:50:37;17.30;64.40
84018;DHT22;74097;51.992;5.890;2023-11-21T03:53:04;17.30;64.30
84018;DHT22;74097;51.992;5.890;2023-11-21T03:55:30;17.30;64.30
84018;DHT22;74097;51.992;5.890;2023-11-21T03:57:55;17.30;64.30
84018;DHT22;74097;51.992;5.890;2023-11-21T04:00:21;17.20;64.30
84018;DHT22;74097;51.992;5.890;2023-11-21T04:02:47;17.20;64.30
84018;DHT22;74097;51.992;5.890;2023-11-21T04:05:14;17.20;64.30
84018;DHT22;74097;51.992;5.890;2023-11-21T04:07:39;17.20;64.30
84018;DHT22;74097;51.992;5.890;2023-11-21T04:10:06;17.20;64.30
84018;DHT22;74097;51.992;5.890;2023-11-21T04:12:32;17.20;64.30
84018;DHT22;74097;51.992;5.890;2023-11-21T04:14:58;17.30;64.30
84018;DHT22;74097;51.992;5.890;2023-11-21T04:17:24;17.20;64.30
84018;DHT22;74097;51.992;5.890;2023-11-21T04:19:49;17.30;64.30
84018;DHT22;74097;51.992;5.890;2023-11-21T04:22:16;17.20;64.30
84018;DHT22;74097;51.992;5.890;2023-11-21T04:24:42;17.20;64.30
84018;DHT22;74097;51.992;5.890;2023-11-21T04:27:08;17.20;64.30
84018;DHT22;74097;51.992;5.890;2023-11-21T04:29:33;17.20;64.30
84018;DHT22;74097;51.992;5.890;2023-11-21T04:31:59;17.20;64.20
84018;DHT22;74097;51.992;5.890;2023-11-21T04:34:25;17.20;64.30
84018;DHT22;74097;51.992;5.890;2023-11-21T04:36:50;17.10;64.20
84018;DHT22;74097;51.992;5.890;2023-11-21T04:39:17;17.10;64.30
84018;DHT22;74097;51.992;5.890;2023-11-21T04:41:43;17.10;64.30
84018;DHT22;74097;51.992;5.890;2023-11-21T04:44:09;17.20;64.30
84018;DHT22;74097;51.992;5.890;2023-11-21T04:46:34;17.10;64.30
84018;DHT22;74097;51.992;5.890;2023-11-21T04:49:00;17.10;64.30
84018;DHT22;74097;51.992;5.890;2023-11-21T04:51:26;17.20;64.30
84018;DHT22;74097;51.992;5.890;2023-11-21T04:53:51;17.20;64.30
84018;DHT22;74097;51.992;5.890;2023-11-21T04:56:18;17.20;64.30
84018;DHT22;74097;51.992;5.890;2023-11-21T04:58:45;17.20;64.30
84018;DHT22;74097;51.992;5.890;2023-11-21T05:01:11;17.20;64.30
84018;DHT22;74097;51.992;5.890;2023-11-21T05:03:36;17.20;64.30
84018;DHT22;74097;51.992;5.890;2023-11-21T05:06:02;17.20;64.30
84018;DHT22;74097;51.992;5.890;2023-11-21T05:08:28;17.20;64.20
84018;DHT22;74097;51.992;5.890;2023-11-21T05:10:53;17.20;64.30
84018;DHT22;74097;51.992;5.890;2023-11-21T05:13:21;17.20;64.20
84018;DHT22;74097;51.992;5.890;2023-11-21T05:15:47;17.20;64.20
84018;DHT22;74097;51.992;5.890;2023-11-21T05:18:12;17.20;64.20
84018;DHT22;74097;51.992;5.890;2023-11-21T05:20:38;17.20;64.20
84018;DHT22;74097;51.992;5.890;2023-11-21T05:23:04;17.10;64.20
84018;DHT22;74097;51.992;5.890;2023-11-21T05:25:29;17.10;64.20
84018;DHT22;74097;51.992;5.890;2023-11-21T05:27:55;17.10;64.20
84018;DHT22;74097;51.992;5.890;2023-11-21T05:30:22;17.20;64.20
84018;DHT22;74097;51.992;5.890;2023-11-21T05:32:48;17.10;64.10
84018;DHT22;74097;51.992;5.890;2023-11-21T05:35:14;17.20;64.20
84018;DHT22;74097;51.992;5.890;2023-11-21T05:37:39;17.10;64.20
84018;DHT22;74097;51.992;5.890;2023-11-21T05:40:06;17.10;64.20
84018;DHT22;74097;51.992;5.890;2023-11-21T05:42:32;17.10;64.20
84018;DHT22;74097;51.992;5.890;2023-11-21T05:44:58;17.10;64.10
84018;DHT22;74097;51.992;5.890;2023-11-21T05:47:25;17.10;64.10
84018;DHT22;74097;51.992;5.890;2023-11-21T05:49:50;17.10;64.10
84018;DHT22;74097;51.992;5.890;2023-11-21T05:52:16;17.10;64.10
84018;DHT22;74097;51.992;5.890;2023-11-21T05:54:42;17.10;64.10
84018;DHT22;74097;51.992;5.890;2023-11-21T05:57:07;17.10;64.10
84018;DHT22;74097;51.992;5.890;2023-11-21T05:59:33;17.10;64.10
84018;DHT22;74097;51.992;5.890;2023-11-21T06:01:59;17.10;64.10
84018;DHT22;74097;51.992;5.890;2023-11-21T06:04:26;17.10;64.10
84018;DHT22;74097;51.992;5.890;2023-11-21T06:06:52;17.10;64.10
84018;DHT22;74097;51.992;5.890;2023-11-21T06:09:17;17.10;64.10
84018;DHT22;74097;51.992;5.890;2023-11-21T06:11:43;17.10;64.10
84018;DHT22;74097;51.992;5.890;2023-11-21T06:14:09;17.10;64.10
84018;DHT22;74097;51.992;5.890;2023-11-21T06:16:34;17.10;64.10
84018;DHT22;74097;51.992;5.890;2023-11-21T06:19:00;17.10;64.10
84018;DHT22;74097;51.992;5.890;2023-11-21T06:21:27;17.10;64.10
84018;DHT22;74097;51.992;5.890;2023-11-21T06:23:53;17.10;64.10
84018;DHT22;74097;51.992;5.890;2023-11-21T06:26:19;17.10;64.10
84018;DHT22;74097;51.992;5.890;2023-11-21T06:28:44;17.10;64.10
84018;DHT22;74097;51.992;5.890;2023-11-21T06:31:10;17.10;64.10
84018;DHT22;74097;51.992;5.890;2023-11-21T06:33:36;17.10;64.20
84018;DHT22;74097;51.992;5.890;2023-11-21T06:36:02;17.10;64.20
84018;DHT22;74097;51.992;5.890;2023-11-21T06:38:29;17.10;64.40
84018;DHT22;74097;51.992;5.890;2023-11-21T06:40:55;17.10;64.50
84018;DHT22;74097;51.992;5.890;2023-11-21T06:43:20;17.10;64.60
84018;DHT22;74097;51.992;5.890;2023-11-21T06:45:46;17.10;64.70
84018;DHT22;74097;51.992;5.890;2023-11-21T06:48:12;17.10;64.70
84018;DHT22;74097;51.992;5.890;2023-11-21T06:50:37;17.10;64.80
84018;DHT22;74097;51.992;5.890;2023-11-21T06:53:03;17.10;64.80
84018;DHT22;74097;51.992;5.890;2023-11-21T06:55:30;17.20;64.80
84018;DHT22;74097;51.992;5.890;2023-11-21T06:57:56;17.10;64.90
84018;DHT22;74097;51.992;5.890;2023-11-21T07:00:22;17.10;64.90
84018;DHT22;74097;51.992;5.890;2023-11-21T07:02:47;17.10;64.90
84018;DHT22;74097;51.992;5.890;2023-11-21T07:05:13;17.10;64.90
84018;DHT22;74097;51.992;5.890;2023-11-21T07:07:39;17.10;64.90
84018;DHT22;74097;51.992;5.890;2023-11-21T07:10:05;17.20;64.90
84018;DHT22;74097;51.992;5.890;2023-11-21T07:12:32;17.10;64.90
84018;DHT22;74097;51.992;5.890;2023-11-21T07:14:58;17.10;64.90
84018;DHT22;74097;51.992;5.890;2023-11-21T07:17:24;17.10;65.00
84018;DHT22;74097;51.992;5.890;2023-11-21T07:19:50;17.10;65.00
84018;DHT22;74097;51.992;5.890;2023-11-21T07:22:16;17.10;65.00
84018;DHT22;74097;51.992;5.890;2023-11-21T07:24:43;17.10;65.10
84018;DHT22;74097;51.992;5.890;2023-11-21T07:27:09;17.10;65.10
84018;DHT22;74097;51.992;5.890;2023-11-21T07:29:36;17.10;65.10
84018;DHT22;74097;51.992;5.890;2023-11-21T07:32:02;17.10;65.10
84018;DHT22;74097;51.992;5.890;2023-11-21T07:34:27;17.20;65.10
84018;DHT22;74097;51.992;5.890;2023-11-21T07:36:53;17.10;65.20
84018;DHT22;74097;51.992;5.890;2023-11-21T07:39:19;17.10;65.30
84018;DHT22;74097;51.992;5.890;2023-11-21T07:41:45;17.20;65.30
84018;DHT22;74097;51.992;5.890;2023-11-21T07:44:11;17.20;65.30
84018;DHT22;74097;51.992;5.890;2023-11-21T07:46:38;17.20;65.40
84018;DHT22;74097;51.992;5.890;2023-11-21T07:49:04;17.20;65.40
84018;DHT22;74097;51.992;5.890;2023-11-21T07:51:30;17.20;65.40
84018;DHT22;74097;51.992;5.890;2023-11-21T07:53:56;17.20;65.40
84018;DHT22;74097;51.992;5.890;2023-11-21T07:56:21;17.20;65.40
84018;DHT22;74097;51.992;5.890;2023-11-21T07:58:47;17.30;65.40
84018;DHT22;74097;51.992;5.890;2023-11-21T08:01:13;17.30;65.50
84018;DHT22;74097;51.992;5.890;2023-11-21T08:03:40;17.30;65.60
84018;DHT22;74097;51.992;5.890;2023-11-21T08:06:07;17.30;65.70
84018;DHT22;74097;51.992;5.890;2023-11-21T08:08:33;17.30;65.80
84018;DHT22;74097;51.992;5.890;2023-11-21T08:10:59;17.30;65.80
84018;DHT22;74097;51.992;5.890;2023-11-21T08:13:25;17.30;65.90
84018;DHT22;74097;51.992;5.890;2023-11-21T08:15:54;17.30;65.90
84018;DHT22;74097;51.992;5.890;2023-11-21T08:18:20;17.30;65.90
84018;DHT22;74097;51.992;5.890;2023-11-21T08:20:47;17.30;65.90
84018;DHT22;74097;51.992;5.890;2023-11-21T08:23:14;17.40;65.90
84018;DHT22;74097;51.992;5.890;2023-11-21T08:25:39;17.30;65.90
84018;DHT22;74097;51.992;5.890;2023-11-21T08:28:05;17.40;65.90
84018;DHT22;74097;51.992;5.890;2023-11-21T08:30:31;17.40;65.90
84018;DHT22;74097;51.992;5.890;2023-11-21T08:32:56;17.40;65.90
84018;DHT22;74097;51.992;5.890;2023-11-21T08:35:22;17.40;65.90
84018;DHT22;74097;51.992;5.890;2023-11-21T08:37:51;17.40;65.90
84018;DHT22;74097;51.992;5.890;2023-11-21T08:40:16;17.40;65.90
84018;DHT22;74097;51.992;5.890;2023-11-21T08:42:42;17.40;65.90
84018;DHT22;74097;51.992;5.890;2023-11-21T08:45:09;17.40;65.90
84018;DHT22;74097;51.992;5.890;2023-11-21T08:47:35;17.40;65.90
84018;DHT22;74097;51.992;5.890;2023-11-21T08:50:00;17.40;65.90
84018;DHT22;74097;51.992;5.890;2023-11-21T08:52:26;17.40;65.80
84018;DHT22;74097;51.992;5.890;2023-11-21T08:54:53;17.50;65.80
84018;DHT22;74097;51.992;5.890;2023-11-21T08:57:19;17.40;65.80
84018;DHT22;74097;51.992;5.890;2023-11-21T08:59:44;17.40;65.80
84018;DHT22;74097;51.992;5.890;2023-11-21T09:02:10;17.40;65.80
84018;DHT22;74097;51.992;5.890;2023-11-21T09:04:36;17.40;65.80
84018;DHT22;74097;51.992;5.890;2023-11-21T09:07:02;17.50;65.70
84018;DHT22;74097;51.992;5.890;2023-11-21T09:09:27;17.50;65.70
84018;DHT22;74097;51.992;5.890;2023-11-21T09:11:54;17.50;65.70
84018;DHT22;74097;51.992;5.890;2023-11-21T09:14:20;17.50;65.70
84018;DHT22;74097;51.992;5.890;2023-11-21T09:16:46;17.50;65.80
84018;DHT22;74097;51.992;5.890;2023-11-21T09:19:11;17.50;65.90
84018;DHT22;74097;51.992;5.890;2023-11-21T09:21:37;17.50;65.90
84018;DHT22;74097;51.992;5.890;2023-11-21T09:24:03;17.50;66.00
84018;DHT22;74097;51.992;5.890;2023-11-21T09:26:29;17.50;66.00
84018;DHT22;74097;51.992;5.890;2023-11-21T09:28:56;17.50;66.00
84018;DHT22;74097;51.992;5.890;2023-11-21T09:31:22;17.40;66.00
84018;DHT22;74097;51.992;5.890;2023-11-21T09:33:48;17.40;66.00
84018;DHT22;74097;51.992;5.890;2023-11-21T09:36:14;17.40;66.00
84018;DHT22;74097;51.992;5.890;2023-11-21T09:38:39;17.50;66.00
84018;DHT22;74097;51.992;5.890;2023-11-21T09:41:08;17.40;65.90
84018;DHT22;74097;51.992;5.890;2023-11-21T09:43:36;17.40;65.90
84018;DHT22;74097;51.992;5.890;2023-11-21T09:46:05;17.40;65.90
84018;DHT22;74097;51.992;5.890;2023-11-21T09:48:32;17.40;66.00
84018;DHT22;74097;51.992;5.890;2023-11-21T09:51:00;17.40;65.90
84018;DHT22;74097;51.992;5.890;2023-11-21T09:53:27;17.40;65.90
84018;DHT22;74097;51.992;5.890;2023-11-21T09:55:53;17.50;66.00
84018;DHT22;74097;51.992;5.890;2023-11-21T09:58:20;17.40;65.90
84018;DHT22;74097;51.992;5.890;2023-11-21T10:00:47;17.40;65.90
84018;DHT22;74097;51.992;5.890;2023-11-21T10:03:17;17.40;65.80
84018;DHT22;74097;51.992;5.890;2023-11-21T10:05:43;17.50;65.80
84018;DHT22;74097;51.992;5.890;2023-11-21T10:08:11;17.50;65.70
84018;DHT22;74097;51.992;5.890;2023-11-21T10:10:37;17.50;65.70
84018;DHT22;74097;51.992;5.890;2023-11-21T10:13:05;17.50;65.60
84018;DHT22;74097;51.992;5.890;2023-11-21T10:15:31;17.50;65.60
84018;DHT22;74097;51.992;5.890;2023-11-21T10:17:57;17.50;65.50
84018;DHT22;74097;51.992;5.890;2023-11-21T10:20:25;17.50;65.40
84018;DHT22;74097;51.992;5.890;2023-11-21T10:22:52;17.50;65.40
84018;DHT22;74097;51.992;5.890;2023-11-21T10:25:18;17.50;65.40
84018;DHT22;74097;51.992;5.890;2023-11-21T10:27:47;17.50;65.40
84018;DHT22;74097;51.992;5.890;2023-11-21T10:30:13;17.50;65.40
84018;DHT22;74097;51.992;5.890;2023-11-21T10:32:39;17.50;65.40
84018;DHT22;74097;51.992;5.890;2023-11-21T10:35:05;17.50;65.40
84018;DHT22;74097;51.992;5.890;2023-11-21T10:37:32;17.50;65.50
84018;DHT22;74097;51.992;5.890;2023-11-21T10:39:58;17.50;65.50
84018;DHT22;74097;51.992;5.890;2023-11-21T10:42:24;17.50;65.50
84018;DHT22;74097;51.992;5.890;2023-11-21T10:44:50;17.50;65.50
84018;DHT22;74097;51.992;5.890;2023-11-21T10:47:16;17.50;65.50
84018;DHT22;74097;51.992;5.890;2023-11-21T10:49:42;17.50;65.50
84018;DHT22;74097;51.992;5.890;2023-11-21T10:52:08;17.50;65.50
84018;DHT22;74097;51.992;5.890;2023-11-21T10:54:35;17.50;65.50
84018;DHT22;74097;51.992;5.890;2023-11-21T10:57:04;17.50;65.50
84018;DHT22;74097;51.992;5.890;2023-11-21T10:59:31;17.50;65.50
84018;DHT22;74097;51.992;5.890;2023-11-21T11:01:58;17.50;65.50
84018;DHT22;74097;51.992;5.890;2023-11-21T11:04:25;17.50;65.50
84018;DHT22;74097;51.992;5.890;2023-11-21T11:06:55;17.50;65.50
84018;DHT22;74097;51.992;5.890;2023-11-21T11:09:22;17.50;65.50
84018;DHT22;74097;51.992;5.890;2023-11-21T11:11:50;17.50;65.50
84018;DHT22;74097;51.992;5.890;2023-11-21T11:14:16;17.50;65.50
84018;DHT22;74097;51.992;5.890;2023-11-21T11:16:42;17.50;65.40
84018;DHT22;74097;51.992;5.890;2023-11-21T11:19:08;17.50;65.50
84018;DHT22;74097;51.992;5.890;2023-11-21T11:21:43;17.50;65.40
84018;DHT22;74097;51.992;5.890;2023-11-21T11:24:28;17.50;65.40
84018;DHT22;74097;51.992;5.890;2023-11-21T11:27:07;17.50;65.40
84018;DHT22;74097;51.992;5.890;2023-11-21T11:29:46;17.50;65.40
84018;DHT22;74097;51.992;5.890;2023-11-21T11:32:22;17.50;65.40
84018;DHT22;74097;51.992;5.890;2023-11-21T11:34:59;17.50;65.40
84018;DHT22;74097;51.992;5.890;2023-11-21T11:37:26;17.50;65.40
84018;DHT22;74097;51.992;5.890;2023-11-21T11:39:52;17.50;65.40
84018;DHT22;74097;51.992;5.890;2023-11-21T11:42:21;17.50;65.40
84018;DHT22;74097;51.992;5.890;2023-11-21T11:44:52;17.50;65.40
84018;DHT22;74097;51.992;5.890;2023-11-21T11:47:24;17.50;65.40
84018;DHT22;74097;51.992;5.890;2023-11-21T11:50:02;17.50;65.30
84018;DHT22;74097;51.992;5.890;2023-11-21T11:52:35;17.50;65.30
84018;DHT22;74097;51.992;5.890;2023-11-21T11:55:02;17.50;65.30
84018;DHT22;74097;51.992;5.890;2023-11-21T11:57:31;17.50;65.30
84018;DHT22;74097;51.992;5.890;2023-11-21T12:00:14;17.50;65.30
84018;DHT22;74097;51.992;5.890;2023-11-21T12:02:40;17.50;65.30
84018;DHT22;74097;51.992;5.890;2023-11-21T12:05:10;17.50;65.30
84018;DHT22;74097;51.992;5.890;2023-11-21T12:07:50;17.50;65.20
84018;DHT22;74097;51.992;5.890;2023-11-21T12:10:18;17.50;65.20
84018;DHT22;74097;51.992;5.890;2023-11-21T12:12:47;17.50;65.20
84018;DHT22;74097;51.992;5.890;2023-11-21T12:15:13;17.50;65.10
84018;DHT22;74097;51.992;5.890;2023-11-21T12:17:40;17.50;65.10
84018;DHT22;74097;51.992;5.890;2023-11-21T12:20:07;17.50;65.10
84018;DHT22;74097;51.992;5.890;2023-11-21T12:22:33;17.50;65.10
84018;DHT22;74097;51.992;5.890;2023-11-21T12:24:59;17.50;65.10
84018;DHT22;74097;51.992;5.890;2023-11-21T12:27:24;17.50;65.10
84018;DHT22;74097;51.992;5.890;2023-11-21T12:29:51;17.50;65.10
84018;DHT22;74097;51.992;5.890;2023-11-21T12:32:17;17.50;65.10
84018;DHT22;74097;51.992;5.890;2023-11-21T12:34:43;17.50;65.10
84018;DHT22;74097;51.992;5.890;2023-11-21T12:37:09;17.50;65.10
84018;DHT22;74097;51.992;5.890;2023-11-21T12:39:35;17.50;65.10
84018;DHT22;74097;51.992;5.890;2023-11-21T12:42:02;17.50;65.00
84018;DHT22;74097;51.992;5.890;2023-11-21T12:44:27;17.50;65.00
84018;DHT22;74097;51.992;5.890;2023-11-21T12:46:54;17.50;65.00
84018;DHT22;74097;51.992;5.890;2023-11-21T12:49:20;17.50;65.00
84018;DHT22;74097;51.992;5.890;2023-11-21T12:51:46;17.50;65.00
84018;DHT22;74097;51.992;5.890;2023-11-21T12:54:12;17.50;65.00
84018;DHT22;74097;51.992;5.890;2023-11-21T12:56:38;17.50;65.00
84018;DHT22;74097;51.992;5.890;2023-11-21T12:59:04;17.50;65.00
84018;DHT22;74097;51.992;5.890;2023-11-21T13:01:30;17.50;65.00
84018;DHT22;74097;51.992;5.890;2023-11-21T13:03:58;17.50;64.90
84018;DHT22;74097;51.992;5.890;2023-11-21T13:06:24;17.50;64.90
84018;DHT22;74097;51.992;5.890;2023-11-21T13:08:50;17.50;64.90
84018;DHT22;74097;51.992;5.890;2023-11-21T13:11:17;17.50;64.90
84018;DHT22;74097;51.992;5.890;2023-11-21T13:13:43;17.50;64.90
84018;DHT22;74097;51.992;5.890;2023-11-21T13:16:09;17.50;64.90
84018;DHT22;74097;51.992;5.890;2023-11-21T13:18:34;17.50;64.90
84018;DHT22;74097;51.992;5.890;2023-11-21T13:21:04;17.50;64.90
84018;DHT22;74097;51.992;5.890;2023-11-21T13:23:34;17.50;64.90
84018;DHT22;74097;51.992;5.890;2023-11-21T13:26:00;17.40;64.80
84018;DHT22;74097;51.992;5.890;2023-11-21T13:28:26;17.50;64.90
84018;DHT22;74097;51.992;5.890;2023-11-21T13:30:52;17.50;64.80
84018;DHT22;74097;51.992;5.890;2023-11-21T13:33:17;17.50;64.80
84018;DHT22;74097;51.992;5.890;2023-11-21T13:35:44;17.50;64.80
84018;DHT22;74097;51.992;5.890;2023-11-21T13:38:12;17.40;64.80
84018;DHT22;74097;51.992;5.890;2023-11-21T13:40:38;17.50;64.80
84018;DHT22;74097;51.992;5.890;2023-11-21T13:43:05;17.50;64.70
84018;DHT22;74097;51.992;5.890;2023-11-21T13:45:31;17.50;64.70
84018;DHT22;74097;51.992;5.890;2023-11-21T13:47:57;17.50;64.70
84018;DHT22;74097;51.992;5.890;2023-11-21T13:50:22;17.50;64.70
84018;DHT22;74097;51.992;5.890;2023-11-21T13:52:49;17.50;64.70
84018;DHT22;74097;51.992;5.890;2023-11-21T13:55:16;17.50;64.70
84018;DHT22;74097;51.992;5.890;2023-11-21T13:57:42;17.50;64.70
84018;DHT22;74097;51.992;5.890;2023-11-21T14:00:08;17.50;64.70
84018;DHT22;74097;51.992;5.890;2023-11-21T14:02:34;17.50;64.70
84018;DHT22;74097;51.992;5.890;2023-11-21T14:05:00;17.40;64.70
84018;DHT22;74097;51.992;5.890;2023-11-21T14:07:26;17.50;64.60
84018;DHT22;74097;51.992;5.890;2023-11-21T14:09:51;17.40;64.60
84018;DHT22;74097;51.992;5.890;2023-11-21T14:12:18;17.50;64.60
84018;DHT22;74097;51.992;5.890;2023-11-21T14:14:44;17.40;64.60
84018;DHT22;74097;51.992;5.890;2023-11-21T14:17:10;17.40;64.60
84018;DHT22;74097;51.992;5.890;2023-11-21T14:19:35;17.40;64.60
84018;DHT22;74097;51.992;5.890;2023-11-21T14:22:01;17.40;64.70
84018;DHT22;74097;51.992;5.890;2023-11-21T14:24:27;17.40;64.70
84018;DHT22;74097;51.992;5.890;2023-11-21T14:26:53;17.40;64.70
84018;DHT22;74097;51.992;5.890;2023-11-21T14:29:20;17.40;64.70
84018;DHT22;74097;51.992;5.890;2023-11-21T14:31:46;17.30;64.70
84018;DHT22;74097;51.992;5.890;2023-11-21T14:34:12;17.40;64.70
84018;DHT22;74097;51.992;5.890;2023-11-21T14:36:38;17.40;64.70
84018;DHT22;74097;51.992;5.890;2023-11-21T14:39:04;17.40;64.70
84018;DHT22;74097;51.992;5.890;2023-11-21T14:41:29;17.40;64.70
84018;DHT22;74097;51.992;5.890;2023-11-21T14:43:55;17.40;64.70
84018;DHT22;74097;51.992;5.890;2023-11-21T14:46:22;17.40;64.70
84018;DHT22;74097;51.992;5.890;2023-11-21T14:48:48;17.40;64.60
84018;DHT22;74097;51.992;5.890;2023-11-21T14:51:14;17.30;64.60
84018;DHT22;74097;51.992;5.890;2023-11-21T14:53:39;17.40;64.60
84018;DHT22;74097;51.992;5.890;2023-11-21T14:56:06;17.30;64.60
84018;DHT22;74097;51.992;5.890;2023-11-21T14:58:32;17.40;64.60
84018;DHT22;74097;51.992;5.890;2023-11-21T15:00:58;17.40;64.60
84018;DHT22;74097;51.992;5.890;2023-11-21T15:03:26;17.30;64.60
84018;DHT22;74097;51.992;5.890;2023-11-21T15:05:52;17.30;64.60
84018;DHT22;74097;51.992;5.890;2023-11-21T15:08:18;17.30;64.60
84018;DHT22;74097;51.992;5.890;2023-11-21T15:10:43;17.40;64.50
84018;DHT22;74097;51.992;5.890;2023-11-21T15:13:09;17.30;64.60
84018;DHT22;74097;51.992;5.890;2023-11-21T15:15:35;17.30;64.50
84018;DHT22;74097;51.992;5.890;2023-11-21T15:18:00;17.30;64.60
84018;DHT22;74097;51.992;5.890;2023-11-21T15:20:27;17.30;64.60
84018;DHT22;74097;51.992;5.890;2023-11-21T15:22:53;17.30;64.60
84018;DHT22;74097;51.992;5.890;2023-11-21T15:25:19;17.30;64.60